Time;durP1;ratioP1;P1;durP2;ratioP2;P2;SDS_P1;SDS_P2;PMS_P1;PMS_P2;Temp;Humidity;BMP_temperature;BMP_pressure;BME280_temperature;BME280_humidity;BME280_pressure;Samples;Min_cycle;Max_cycle;Signal;HPM_P1;HPM_P2
2021/07/31 04:01:10;;;;;;;4.73;3.03;;;17.60;96.30;;;;;;5587327;23;20509;-81
2021/07/31 04:03:35;;;;;;;3.60;3.30;;;17.60;96.30;;;;;;4964732;28;20953;-82
2021/07/31 04:06:01;;;;;;;3.47;2.80;;;17.60;96.30;;;;;;4958629;29;20553;-81
2021/07/31 04:08:26;;;;;;;5.47;2.73;;;17.60;96.30;;;;;;4941016;29;20179;-81
2021/07/31 04:10:52;;;;;;;5.10;3.70;;;17.50;96.30;;;;;;4958539;29;20199;-82
2021/07/31 04:13:17;;;;;;;3.00;2.70;;;17.60;96.30;;;;;;4957610;29;20705;-81
2021/07/31 04:15:43;;;;;;;4.83;3.37;;;17.50;96.30;;;;;;4959047;29;20183;-80
2021/07/31 04:18:08;;;;;;;6.33;2.80;;;17.60;96.30;;;;;;4940567;29;20223;-80
2021/07/31 04:28:20;;;;;;;7.50;2.93;;;17.80;96.30;;;;;;5097670;23;20501;-79
2021/07/31 04:30:45;;;;;;;10.23;2.80;;;18.20;96.30;;;;;;4955099;29;20431;-79
2021/07/31 04:33:11;;;;;;;3.50;3.20;;;19.10;96.30;;;;;;4954777;29;20179;-79
2021/07/31 04:35:36;;;;;;;4.37;2.83;;;20.00;96.20;;;;;;4960732;29;20167;-80
2021/07/31 04:38:02;;;;;;;3.10;2.60;;;20.60;93.20;;;;;;4955722;28;20538;-79
2021/07/31 04:40:28;;;;;;;4.17;2.93;;;21.50;91.60;;;;;;4955770;29;20282;-80
2021/07/31 04:42:53;;;;;;;3.00;2.70;;;22.30;88.10;;;;;;4955540;29;20434;-79
2021/07/31 04:45:19;;;;;;;5.63;2.83;;;23.30;82.80;;;;;;4956647;29;20182;-80
2021/07/31 04:47:44;;;;;;;7.20;3.10;;;23.60;82.00;;;;;;4939075;29;20174;-81
2021/07/31 04:50:13;;;;;;;3.83;2.37;;;24.20;81.40;;;;;;4956397;29;20177;-80
2021/07/31 04:52:38;;;;;;;2.77;2.37;;;24.70;78.50;;;;;;4955816;29;20194;-81
2021/07/31 04:55:05;;;;;;;6.93;2.23;;;25.00;76.30;;;;;;4955789;29;20489;-80
2021/07/31 04:57:30;;;;;;;3.27;2.97;;;24.80;76.60;;;;;;4955964;29;20580;-80
2021/07/31 04:59:55;;;;;;;2.50;2.30;;;24.20;77.10;;;;;;4955883;29;20457;-80
2021/07/31 05:02:21;;;;;;;7.30;2.33;;;24.00;78.90;;;;;;4955417;29;20244;-80
2021/07/31 05:04:46;;;;;;;4.60;2.30;;;25.00;77.70;;;;;;4955557;29;20214;-81
2021/07/31 05:07:12;;;;;;;3.80;2.73;;;25.60;74.60;;;;;;4955545;29;20200;-79
2021/07/31 05:09:38;;;;;;;4.10;2.03;;;26.20;74.90;;;;;;4954606;29;20233;-79
2021/07/31 05:12:04;;;;;;;4.10;1.93;;;26.40;72.40;;;;;;4954028;29;20201;-79
2021/07/31 05:14:29;;;;;;;3.30;2.00;;;26.20;73.80;;;;;;4954578;29;20633;-79
2021/07/31 05:16:55;;;;;;;11.67;1.80;;;26.60;71.90;;;;;;4954428;29;20182;-79
2021/07/31 05:19:21;;;;;;;4.20;2.50;;;26.40;73.60;;;;;;4954451;29;20171;-79
2021/07/31 05:21:46;;;;;;;1.77;1.67;;;27.20;72.90;;;;;;4936830;29;20202;-79
2021/07/31 05:24:12;;;;;;;8.20;2.30;;;26.80;73.20;;;;;;4956189;29;20327;-81
2021/07/31 05:26:38;;;;;;;5.73;2.10;;;26.70;71.60;;;;;;4956585;29;20194;-81
2021/07/31 05:29:04;;;;;;;7.43;1.83;;;25.80;74.50;;;;;;4956300;29;20186;-80
2021/07/31 05:31:30;;;;;;;5.10;1.90;;;25.50;76.30;;;;;;4956495;29;20433;-80
2021/07/31 05:33:56;;;;;;;6.10;2.10;;;25.60;75.90;;;;;;4958975;29;20409;-80
2021/07/31 05:36:22;;;;;;;3.47;1.90;;;24.70;77.10;;;;;;4955052;29;20197;-81
2021/07/31 05:38:47;;;;;;;2.00;1.80;;;24.00;78.80;;;;;;4954885;29;20870;-80
2021/07/31 05:41:17;;;;;;;4.90;2.43;;;23.70;79.30;;;;;;4955366;29;20201;-80
2021/07/31 05:43:44;;;;;;;4.10;2.27;;;24.40;78.90;;;;;;4955226;29;20253;-80
2021/07/31 05:46:10;;;;;;;6.27;2.30;;;25.00;78.10;;;;;;4956370;29;20406;-81
2021/07/31 05:48:36;;;;;;;8.03;1.87;;;25.40;75.60;;;;;;4957478;29;20883;-80
2021/07/31 05:51:01;;;;;;;3.80;1.67;;;26.60;73.30;;;;;;4945418;29;20547;-81
2021/07/31 05:53:27;;;;;;;5.67;1.80;;;27.40;70.80;;;;;;4964775;29;20182;-81
2021/07/31 05:55:53;;;;;;;4.93;2.23;;;27.80;68.30;;;;;;4964380;29;20174;-81
2021/07/31 05:58:18;;;;;;;5.57;2.03;;;28.20;69.20;;;;;;4963860;28;20174;-80
2021/07/31 06:00:44;;;;;;;2.23;1.80;;;28.50;68.00;;;;;;4947245;29;20248;-81
2021/07/31 06:03:09;;;;;;;12.50;1.60;;;27.70;69.00;;;;;;4963689;29;20202;-80
2021/07/31 06:05:35;;;;;;;7.17;2.10;;;27.40;68.40;;;;;;4964992;29;20174;-80
2021/07/31 06:08:00;;;;;;;6.80;1.60;;;27.50;70.40;;;;;;4948479;29;20206;-80
2021/07/31 06:10:26;;;;;;;3.60;1.37;;;26.50;68.80;;;;;;4965268;29;20182;-80
2021/07/31 06:12:51;;;;;;;3.53;1.40;;;26.90;69.80;;;;;;4963458;29;20179;-80
2021/07/31 06:15:17;;;;;;;4.53;1.57;;;27.10;68.50;;;;;;4964749;29;20166;-80
2021/07/31 06:17:43;;;;;;;5.93;1.47;;;27.30;66.80;;;;;;4946961;29;20189;-80
2021/07/31 06:20:09;;;;;;;8.63;1.60;;;26.70;70.20;;;;;;4965042;29;20182;-81
2021/07/31 06:22:35;;;;;;;5.13;1.67;;;25.70;71.40;;;;;;4962881;29;20182;-80
2021/07/31 06:25:00;;;;;;;5.97;1.30;;;24.70;74.10;;;;;;4966236;28;20859;-81
2021/07/31 06:27:26;;;;;;;2.97;1.60;;;25.30;72.50;;;;;;4967710;29;20225;-81
2021/07/31 06:29:51;;;;;;;15.67;1.70;;;25.70;71.20;;;;;;4967416;28;20705;-80
2021/07/31 06:32:17;;;;;;;9.00;2.37;;;26.10;69.50;;;;;;4967123;28;20213;-81
2021/07/31 06:34:42;;;;;;;3.80;1.53;;;25.20;72.70;;;;;;4956950;29;20175;-80
2021/07/31 06:37:08;;;;;;;9.73;1.50;;;25.90;70.70;;;;;;4946561;29;20549;-80
2021/07/31 06:39:33;;;;;;;3.30;1.50;;;25.50;72.70;;;;;;4936096;29;20175;-81
2021/07/31 06:41:59;;;;;;;3.27;1.60;;;25.60;73.70;;;;;;4954693;29;20222;-82
2021/07/31 06:44:24;;;;;;;6.50;1.67;;;26.70;70.70;;;;;;4952832;29;20539;-81
2021/07/31 06:46:50;;;;;;;6.80;1.93;;;26.40;71.10;;;;;;4961959;29;20191;-82
2021/07/31 06:49:15;;;;;;;4.50;2.03;;;26.40;70.90;;;;;;4948483;29;20183;-80
2021/07/31 06:51:41;;;;;;;2.70;1.60;;;27.00;70.10;;;;;;4940275;29;20198;-81
2021/07/31 06:54:06;;;;;;;4.93;1.73;;;27.60;70.60;;;;;;4951349;29;20186;-82
2021/07/31 06:56:36;;;;;;;4.83;1.27;;;28.00;65.80;;;;;;4933543;29;20705;-82
2021/07/31 06:59:02;;;;;;;2.57;1.40;;;28.90;68.00;;;;;;4956060;29;20268;-82
2021/07/31 07:01:28;;;;;;;2.20;1.43;;;28.50;68.30;;;;;;4957916;29;20206;-82
2021/07/31 07:03:54;;;;;;;4.07;1.70;;;28.70;67.80;;;;;;4971035;29;20540;-81
2021/07/31 07:06:20;;;;;;;4.50;1.83;;;27.20;68.10;;;;;;4946337;29;20193;-81
2021/07/31 07:08:46;;;;;;;7.70;1.43;;;27.20;69.50;;;;;;4944801;29;20556;-81
2021/07/31 07:11:13;;;;;;;3.20;1.53;;;27.30;68.10;;;;;;4942952;29;20438;-81
2021/07/31 07:13:39;;;;;;;7.03;1.47;;;26.50;68.00;;;;;;4943656;29;20179;-82
2021/07/31 07:16:05;;;;;;;5.47;1.10;;;26.60;68.90;;;;;;4940891;29;20428;-82
2021/07/31 07:18:30;;;;;;;2.20;1.10;;;26.70;69.70;;;;;;4958334;29;20261;-82
2021/07/31 07:20:56;;;;;;;3.03;1.10;;;27.60;67.60;;;;;;4957137;29;20209;-82
2021/07/31 07:23:21;;;;;;;3.30;1.57;;;27.70;65.50;;;;;;4956548;29;20524;-81
2021/07/31 07:25:47;;;;;;;3.17;1.30;;;27.50;64.60;;;;;;4940984;29;20186;-82
2021/07/31 07:28:12;;;;;;;4.70;1.30;;;27.10;65.30;;;;;;4940519;29;20190;-82
2021/07/31 07:30:38;;;;;;;3.40;1.50;;;26.70;68.30;;;;;;4959306;29;20725;-81
2021/07/31 07:33:03;;;;;;;4.77;1.40;;;26.80;68.60;;;;;;4961471;29;20202;-81
2021/07/31 07:35:30;;;;;;;2.33;1.27;;;27.40;67.70;;;;;;4964943;29;20581;-80
2021/07/31 07:37:55;;;;;;;2.83;1.13;;;28.20;66.40;;;;;;4943443;29;20198;-82
2021/07/31 07:40:21;;;;;;;3.30;1.60;;;28.80;64.80;;;;;;4960162;29;20481;-81
2021/07/31 07:42:47;;;;;;;8.37;1.33;;;28.30;68.70;;;;;;4941786;29;20213;-82
2021/07/31 07:45:12;;;;;;;7.00;1.53;;;28.20;66.70;;;;;;4958449;29;20245;-80
2021/07/31 07:47:38;;;;;;;6.00;1.83;;;28.20;71.30;;;;;;4942549;29;20286;-80
2021/07/31 07:50:05;;;;;;;4.53;1.77;;;28.30;65.00;;;;;;4960774;29;20273;-81
2021/07/31 07:52:30;;;;;;;2.20;1.40;;;27.80;69.20;;;;;;4958036;29;20259;-80
2021/07/31 07:54:56;;;;;;;4.10;1.40;;;27.50;67.60;;;;;;4949269;29;20933;-81
2021/07/31 07:57:22;;;;;;;4.50;1.80;;;26.70;69.20;;;;;;4930272;29;20651;-81
2021/07/31 07:59:47;;;;;;;4.73;1.40;;;26.80;68.70;;;;;;4949177;29;20187;-80
2021/07/31 08:02:15;;;;;;;9.30;1.70;;;26.80;73.90;;;;;;4948221;29;20194;-81
2021/07/31 08:04:40;;;;;;;3.30;1.63;;;25.90;72.10;;;;;;4926503;29;20299;-80
2021/07/31 08:07:07;;;;;;;3.80;1.40;;;26.50;69.80;;;;;;4944347;29;20451;-81
2021/07/31 08:09:35;;;;;;;4.03;1.67;;;26.00;70.40;;;;;;4941440;29;20167;-80
2021/07/31 08:12:00;;;;;;;4.03;1.33;;;25.60;71.50;;;;;;4946149;29;20978;-81
2021/07/31 08:14:26;;;;;;;2.77;1.50;;;24.60;72.10;;;;;;4956893;28;20441;-80
2021/07/31 08:16:51;;;;;;;5.00;1.50;;;24.90;73.40;;;;;;4940674;29;20210;-80
2021/07/31 08:19:17;;;;;;;9.17;1.80;;;24.40;73.90;;;;;;4953104;29;20174;-79
2021/07/31 08:21:42;;;;;;;7.70;1.63;;;24.60;73.80;;;;;;4948609;29;20198;-80
2021/07/31 08:24:08;;;;;;;5.03;1.60;;;25.10;74.40;;;;;;4944722;29;20726;-80
2021/07/31 08:26:34;;;;;;;7.47;1.77;;;25.80;72.40;;;;;;4936221;29;20284;-80
2021/07/31 08:28:59;;;;;;;4.20;1.63;;;26.40;72.90;;;;;;4956971;29;20257;-80
2021/07/31 08:31:25;;;;;;;3.70;1.40;;;27.60;70.30;;;;;;4929452;29;20214;-80
2021/07/31 08:33:50;;;;;;;4.07;1.40;;;28.70;70.70;;;;;;4960543;29;20166;-80
2021/07/31 08:36:16;;;;;;;5.97;1.20;;;28.60;68.70;;;;;;4927756;29;20182;-81
2021/07/31 08:38:41;;;;;;;3.93;1.27;;;27.60;67.80;;;;;;4939534;29;20182;-80
2021/07/31 08:41:07;;;;;;;5.43;1.50;;;27.30;68.60;;;;;;4938413;29;20214;-80
2021/07/31 08:43:33;;;;;;;4.83;1.27;;;27.00;67.30;;;;;;4938105;29;20569;-81
2021/07/31 08:46:05;;;;;;;3.03;1.23;;;26.80;70.20;;;;;;4938783;29;20203;-81
2021/07/31 08:48:31;;;;;;;3.83;1.40;;;26.60;71.70;;;;;;4939075;29;20415;-80
2021/07/31 08:51:01;;;;;;;6.00;1.60;;;26.60;70.90;;;;;;4937318;29;20468;-80
2021/07/31 08:53:29;;;;;;;6.23;1.47;;;26.80;67.90;;;;;;4942224;29;20470;-80
2021/07/31 08:55:55;;;;;;;2.70;1.30;;;26.20;69.90;;;;;;4948905;29;20482;-83
2021/07/31 08:58:23;;;;;;;2.93;1.40;;;25.80;71.80;;;;;;4956118;29;20418;-80
2021/07/31 09:00:50;;;;;;;3.23;1.00;;;25.60;68.60;;;;;;4950507;29;20806;-81
2021/07/31 09:03:15;;;;;;;3.87;1.40;;;25.60;69.00;;;;;;4942146;29;20494;-81
2021/07/31 09:05:42;;;;;;;2.80;1.40;;;26.50;71.40;;;;;;4948256;29;20447;-82
2021/07/31 09:08:09;;;;;;;2.13;1.10;;;27.10;71.70;;;;;;4931112;29;20257;-82
2021/07/31 09:10:40;;;;;;;3.07;1.20;;;27.20;68.20;;;;;;4943555;29;20434;-81
2021/07/31 09:13:08;;;;;;;10.30;1.33;;;27.60;68.00;;;;;;4944569;29;20537;-82
2021/07/31 09:15:43;;;;;;;1.50;1.10;;;27.60;68.20;;;;;;4935951;29;20534;-82
2021/07/31 09:18:34;;;;;;;4.37;1.43;;;27.90;65.70;;;;;;4949953;29;20422;-81
2021/07/31 09:21:10;;;;;;;3.27;1.50;;;26.50;68.60;;;;;;4937713;29;20442;-80
2021/07/31 09:23:44;;;;;;;2.03;1.20;;;25.60;72.60;;;;;;4949750;29;20560;-81
2021/07/31 09:26:14;;;;;;;9.13;1.93;;;25.90;70.90;;;;;;4946541;29;20441;-80
2021/07/31 09:28:40;;;;;;;4.83;1.20;;;26.30;72.70;;;;;;4954973;29;20813;-81
2021/07/31 09:31:15;;;;;;;3.27;1.43;;;26.50;70.60;;;;;;4948854;29;20958;-81
2021/07/31 09:33:45;;;;;;;4.33;1.50;;;26.60;70.30;;;;;;4942765;29;20401;-81
2021/07/31 09:36:10;;;;;;;3.43;1.30;;;26.30;70.30;;;;;;4941803;29;20422;-82
2021/07/31 09:38:38;;;;;;;1.73;1.00;;;26.00;68.80;;;;;;4935083;29;20411;-82
2021/07/31 09:41:34;;;;;;;2.87;1.07;;;26.20;73.70;;;;;;4934470;29;20195;-81
2021/07/31 09:44:10;;;;;;;6.67;1.30;;;26.00;73.40;;;;;;4951029;29;20463;-81
2021/07/31 09:46:50;;;;;;;1.83;1.00;;;25.80;72.00;;;;;;4934474;29;20414;-80
2021/07/31 09:49:26;;;;;;;3.60;1.17;;;25.40;72.80;;;;;;4945286;29;20508;-81
2021/07/31 09:51:58;;;;;;;4.03;1.17;;;25.60;73.20;;;;;;4946333;29;20918;-81
2021/07/31 09:54:23;;;;;;;3.77;1.20;;;26.00;70.50;;;;;;4942770;29;20514;-80
2021/07/31 09:56:54;;;;;;;4.97;1.10;;;25.70;69.00;;;;;;4941659;29;20497;-81
2021/07/31 09:59:21;;;;;;;10.07;1.20;;;26.20;69.80;;;;;;4933354;29;20194;-80
2021/07/31 10:01:49;;;;;;;2.23;0.90;;;26.20;71.20;;;;;;4921667;29;20442;-71
2021/07/31 10:04:16;;;;;;;3.10;0.97;;;25.30;72.20;;;;;;4941462;29;20458;-71
2021/07/31 10:06:42;;;;;;;1.20;0.80;;;25.20;71.50;;;;;;4938947;29;20969;-70
2021/07/31 10:09:10;;;;;;;9.97;1.13;;;25.30;69.70;;;;;;4941329;29;20466;-71
2021/07/31 10:11:39;;;;;;;3.37;1.27;;;25.50;72.90;;;;;;4935771;29;20443;-71
2021/07/31 10:14:08;;;;;;;1.80;0.97;;;25.50;73.00;;;;;;4938979;29;20422;-72
2021/07/31 10:16:35;;;;;;;1.40;0.83;;;25.10;72.30;;;;;;4948782;29;20478;-72
2021/07/31 10:19:04;;;;;;;6.20;1.30;;;25.30;73.20;;;;;;4941395;29;20826;-70
2021/07/31 10:21:33;;;;;;;2.70;1.30;;;25.50;72.20;;;;;;4940728;29;20442;-71
2021/07/31 10:24:07;;;;;;;7.40;1.20;;;25.70;72.80;;;;;;4937574;29;20466;-70
2021/07/31 10:26:34;;;;;;;2.27;1.20;;;25.30;73.30;;;;;;4945031;29;20415;-69
2021/07/31 10:29:32;;;;;;;2.03;0.90;;;25.40;73.90;;;;;;4948870;29;20453;-70
2021/07/31 10:32:20;;;;;;;4.57;1.10;;;25.90;70.10;;;;;;4936284;29;20462;-77
2021/07/31 10:34:47;;;;;;;1.27;0.90;;;25.90;67.30;;;;;;4952017;29;20410;-76
2021/07/31 10:37:31;;;;;;;2.70;1.00;;;26.00;69.80;;;;;;4944672;29;20566;-78
2021/07/31 10:40:11;;;;;;;8.73;1.30;;;26.10;72.60;;;;;;4947459;29;20463;-75
2021/07/31 10:42:51;;;;;;;4.47;1.60;;;26.10;71.20;;;;;;4949856;29;20488;-73
2021/07/31 10:45:17;;;;;;;2.73;1.13;;;26.30;74.60;;;;;;4933273;29;20833;-73
2021/07/31 10:47:44;;;;;;;4.30;1.10;;;26.10;71.60;;;;;;4928919;29;20442;-75
2021/07/31 10:50:22;;;;;;;5.60;1.17;;;26.10;72.20;;;;;;4956616;29;20256;-74
2021/07/31 10:53:06;;;;;;;4.70;0.90;;;26.30;67.20;;;;;;4944084;29;20415;-74
2021/07/31 10:55:38;;;;;;;3.50;0.90;;;26.30;70.10;;;;;;4940623;29;20414;-74
2021/07/31 10:58:07;;;;;;;1.83;0.83;;;26.20;72.30;;;;;;4944904;29;21265;-74
2021/07/31 11:00:37;;;;;;;1.50;0.90;;;26.30;72.10;;;;;;4948271;29;20452;-73
2021/07/31 11:03:24;;;;;;;6.70;1.00;;;25.80;70.90;;;;;;4927552;29;20415;-77
2021/07/31 11:05:58;;;;;;;3.20;1.20;;;25.80;69.10;;;;;;4919164;29;20935;-74
2021/07/31 11:08:27;;;;;;;2.13;0.90;;;25.30;68.60;;;;;;4947777;29;20832;-75
2021/07/31 11:10:57;;;;;;;1.73;1.10;;;25.60;73.80;;;;;;4933417;29;20932;-74
2021/07/31 11:13:22;;;;;;;2.30;1.07;;;25.70;69.90;;;;;;4948051;29;20415;-76
2021/07/31 11:16:00;;;;;;;7.83;1.23;;;25.60;69.00;;;;;;4940832;29;20442;-77
2021/07/31 11:18:42;;;;;;;2.70;0.93;;;25.70;70.40;;;;;;4943700;29;20273;-78
2021/07/31 11:21:31;;;;;;;8.93;1.17;;;25.60;70.90;;;;;;4948903;29;20433;-74
2021/07/31 11:24:08;;;;;;;3.23;0.83;;;25.70;70.00;;;;;;4946632;29;20458;-74
2021/07/31 11:26:51;;;;;;;1.63;1.00;;;25.50;68.50;;;;;;4937683;29;20441;-77
2021/07/31 11:29:21;;;;;;;1.63;0.90;;;25.50;68.30;;;;;;4950673;29;20481;-74
2021/07/31 11:32:16;;;;;;;9.60;2.10;;;25.40;71.80;;;;;;4945239;29;20855;-75
2021/07/31 11:34:44;;;;;;;2.37;1.10;;;25.60;71.40;;;;;;4944905;29;20426;-75
2021/07/31 11:37:11;;;;;;;5.67;0.90;;;25.80;72.50;;;;;;4924972;29;20448;-74
2021/07/31 11:39:38;;;;;;;2.03;0.90;;;26.10;75.10;;;;;;4923710;29;21160;-74
2021/07/31 11:42:05;;;;;;;3.93;0.90;;;26.60;72.40;;;;;;4943837;29;20528;-75
2021/07/31 11:44:33;;;;;;;3.60;1.20;;;26.00;70.00;;;;;;4944633;29;20454;-77
2021/07/31 11:47:00;;;;;;;3.90;1.10;;;25.40;69.00;;;;;;4943752;29;20501;-73
2021/07/31 11:49:26;;;;;;;5.27;1.10;;;;;;;;;;4950328;29;20423;-75
2021/07/31 11:51:53;;;;;;;6.23;0.87;;;25.80;73.80;;;;;;4942335;29;20446;-75
2021/07/31 11:54:19;;;;;;;5.47;1.40;;;26.00;71.80;;;;;;4940956;29;20183;-76
2021/07/31 11:56:46;;;;;;;1.50;1.03;;;26.30;71.50;;;;;;4944685;29;20953;-75
2021/07/31 11:59:13;;;;;;;3.83;1.20;;;25.70;69.80;;;;;;4941313;29;20218;-76
2021/07/31 12:01:46;;;;;;;1.60;1.10;;;25.00;69.90;;;;;;4944881;29;20506;-74
2021/07/31 12:04:11;;;;;;;1.83;0.93;;;25.20;70.60;;;;;;4922478;29;20479;-77
2021/07/31 12:06:42;;;;;;;2.40;1.17;;;25.50;72.10;;;;;;4948262;29;20435;-77
2021/07/31 12:09:08;;;;;;;4.03;0.97;;;;;;;;;;4945921;29;20175;-74
2021/07/31 12:11:36;;;;;;;8.73;0.87;;;25.20;70.30;;;;;;4929094;29;20445;-76
2021/07/31 12:14:40;;;;;;;3.00;1.10;;;25.20;67.80;;;;;;4931228;29;20203;-74
2021/07/31 12:17:17;;;;;;;2.40;1.00;;;25.90;72.90;;;;;;4944507;29;20430;-74
2021/07/31 12:19:56;;;;;;;4.87;1.23;;;26.10;70.20;;;;;;4940206;29;20398;-75
2021/07/31 12:22:24;;;;;;;1.57;0.87;;;26.00;68.30;;;;;;4936768;29;20460;-73
2021/07/31 12:25:10;;;;;;;2.70;1.00;;;25.70;69.30;;;;;;4943531;29;20453;-75
2021/07/31 12:27:58;;;;;;;6.03;1.10;;;25.90;70.40;;;;;;4943027;29;20526;-73
2021/07/31 12:30:45;;;;;;;1.50;1.13;;;25.90;70.90;;;;;;4936001;29;20506;-74
2021/07/31 12:33:16;;;;;;;3.90;1.10;;;25.70;70.70;;;;;;4936640;29;21049;-73
2021/07/31 12:35:52;;;;;;;1.93;1.30;;;26.20;71.10;;;;;;4924030;29;20423;-73
2021/07/31 12:38:18;;;;;;;1.20;0.97;;;26.60;69.40;;;;;;4939072;29;20890;-73
2021/07/31 12:40:45;;;;;;;2.50;1.03;;;26.60;70.20;;;;;;4940766;29;20442;-74
2021/07/31 12:43:14;;;;;;;3.77;1.10;;;26.30;67.40;;;;;;4941072;29;20427;-73
2021/07/31 12:45:43;;;;;;;8.10;1.20;;;24.90;69.80;;;;;;4941494;29;20470;-72
2021/07/31 12:48:09;;;;;;;2.80;1.07;;;;;;;;;;4943349;29;20419;-72
2021/07/31 12:50:38;;;;;;;6.00;1.07;;;24.20;71.30;;;;;;4925386;29;21079;-72
2021/07/31 12:53:03;;;;;;;3.73;1.30;;;24.60;73.40;;;;;;4939186;29;20541;-73
2021/07/31 12:55:29;;;;;;;3.87;0.90;;;24.90;71.90;;;;;;4940598;29;20514;-72
2021/07/31 12:57:56;;;;;;;3.23;1.00;;;24.90;72.30;;;;;;4941088;29;20247;-74
2021/07/31 13:00:22;;;;;;;2.20;1.07;;;25.00;68.60;;;;;;4939370;29;20415;-74
2021/07/31 13:02:48;;;;;;;4.70;1.30;;;24.20;71.20;;;;;;4940360;29;20423;-75
2021/07/31 13:05:14;;;;;;;4.93;1.17;;;24.70;72.30;;;;;;4941192;29;20510;-74
2021/07/31 13:07:40;;;;;;;4.40;1.20;;;25.00;72.90;;;;;;4924062;29;20482;-72
2021/07/31 13:10:06;;;;;;;4.83;1.30;;;24.90;71.80;;;;;;4941892;29;20419;-73
2021/07/31 13:12:32;;;;;;;1.53;1.00;;;;;;;;;;4941819;29;20920;-74
2021/07/31 13:14:58;;;;;;;2.37;1.10;;;24.30;72.80;;;;;;4923954;29;20187;-73
2021/07/31 13:17:24;;;;;;;5.10;1.20;;;24.80;74.20;;;;;;4940134;29;20238;-74
2021/07/31 13:19:49;;;;;;;1.73;1.07;;;25.30;72.50;;;;;;4941319;29;20176;-73
2021/07/31 13:22:15;;;;;;;2.60;1.10;;;;;;;;;;4941467;29;20627;-73
2021/07/31 13:24:41;;;;;;;2.77;1.37;;;24.80;70.70;;;;;;4943093;29;20195;-73
2021/07/31 13:27:07;;;;;;;13.33;1.83;;;24.20;70.20;;;;;;4938611;29;20187;-76
2021/07/31 13:29:32;;;;;;;1.63;1.03;;;24.50;75.70;;;;;;4934828;29;20430;-75
2021/07/31 13:32:01;;;;;;;1.40;1.10;;;24.70;70.40;;;;;;4934720;29;20203;-75
2021/07/31 13:34:26;;;;;;;3.57;1.23;;;24.40;70.90;;;;;;4936497;29;20179;-74
2021/07/31 13:36:57;;;;;;;1.63;1.00;;;24.50;73.40;;;;;;4935001;29;20898;-76
2021/07/31 13:39:25;;;;;;;1.30;0.87;;;;;;;;;;4935147;29;20168;-76
2021/07/31 13:41:51;;;;;;;4.17;0.90;;;24.70;72.10;;;;;;4934128;29;20430;-74
2021/07/31 13:44:16;;;;;;;5.40;1.13;;;25.20;73.50;;;;;;4935193;29;20458;-76
2021/07/31 13:46:43;;;;;;;17.03;1.63;;;24.60;68.70;;;;;;4936080;29;20198;-78
2021/07/31 13:49:09;;;;;;;1.83;1.10;;;24.40;69.20;;;;;;4938910;29;20217;-76
2021/07/31 13:51:34;;;;;;;4.33;1.10;;;24.80;70.90;;;;;;4934429;29;20482;-76
2021/07/31 13:54:00;;;;;;;2.73;1.53;;;24.80;69.20;;;;;;4935634;29;20450;-76
2021/07/31 13:56:25;;;;;;;2.17;1.10;;;25.00;65.70;;;;;;4936194;29;20186;-75
2021/07/31 13:58:51;;;;;;;1.87;1.00;;;25.00;67.20;;;;;;4935114;29;20175;-75
2021/07/31 14:01:21;;;;;;;2.53;1.07;;;24.80;69.00;;;;;;4934995;29;20198;-76
2021/07/31 14:03:47;;;;;;;7.20;1.20;;;25.00;68.80;;;;;;4934593;29;20271;-76
2021/07/31 14:06:13;;;;;;;1.70;1.03;;;25.10;70.20;;;;;;4934555;29;20430;-76
2021/07/31 14:08:38;;;;;;;2.50;1.20;;;25.20;68.10;;;;;;4934912;29;20908;-76
2021/07/31 14:11:04;;;;;;;4.90;1.20;;;25.30;70.10;;;;;;4935358;29;20294;-76
2021/07/31 14:13:29;;;;;;;2.60;1.27;;;25.10;68.50;;;;;;4938343;29;20211;-76
2021/07/31 14:15:55;;;;;;;4.83;1.20;;;25.00;71.20;;;;;;4942330;29;20190;-74
2021/07/31 14:18:20;;;;;;;4.90;1.23;;;24.70;72.50;;;;;;4929882;29;20186;-73
2021/07/31 14:20:46;;;;;;;4.13;1.50;;;24.10;70.90;;;;;;4946845;29;20323;-74
2021/07/31 14:23:12;;;;;;;2.80;0.90;;;23.70;71.50;;;;;;4946498;29;20180;-73
2021/07/31 14:25:43;;;;;;;4.07;1.53;;;24.10;70.40;;;;;;4962484;29;20182;-73
2021/07/31 14:28:09;;;;;;;4.43;1.40;;;24.90;71.30;;;;;;4970424;29;20446;-74
2021/07/31 14:30:35;;;;;;;5.83;1.13;;;24.80;67.30;;;;;;4970278;29;20504;-74
2021/07/31 14:33:01;;;;;;;3.23;1.00;;;24.80;70.20;;;;;;4972371;29;20182;-73
2021/07/31 14:35:27;;;;;;;3.10;1.20;;;24.80;68.90;;;;;;4970705;29;20422;-76
2021/07/31 14:37:53;;;;;;;4.40;1.10;;;24.90;70.90;;;;;;4972383;29;20428;-73
2021/07/31 14:40:19;;;;;;;1.83;1.10;;;;;;;;;;4970301;29;20432;-74
2021/07/31 14:42:45;;;;;;;3.53;1.00;;;;;;;;;;4970056;29;20178;-75
2021/07/31 14:45:11;;;;;;;4.97;1.10;;;24.90;69.50;;;;;;4972066;29;20221;-73
2021/07/31 14:47:36;;;;;;;4.43;1.17;;;24.70;69.70;;;;;;4958246;29;20171;-72
2021/07/31 14:50:02;;;;;;;2.73;1.23;;;24.30;70.80;;;;;;4957342;29;20645;-72
2021/07/31 14:52:27;;;;;;;2.23;1.37;;;24.50;68.40;;;;;;4957388;29;20308;-72
2021/07/31 14:54:53;;;;;;;1.83;1.07;;;;;;;;;;4956966;29;20175;-73
2021/07/31 14:57:19;;;;;;;2.53;1.60;;;;;;;;;;4957246;29;20614;-72
2021/07/31 14:59:45;;;;;;;12.43;9.13;;;24.60;69.00;;;;;;4957037;29;20182;-72
2021/07/31 15:02:10;;;;;;;1.87;1.40;;;24.80;71.90;;;;;;4956240;29;20195;-73
2021/07/31 15:04:36;;;;;;;5.23;1.70;;;24.80;73.20;;;;;;4956734;29;20730;-72
2021/07/31 15:07:01;;;;;;;2.13;1.20;;;24.80;73.10;;;;;;4957241;29;20174;-72
2021/07/31 15:09:27;;;;;;;3.87;1.30;;;24.50;69.80;;;;;;4956818;29;20767;-72
2021/07/31 15:11:53;;;;;;;2.37;1.20;;;24.90;71.00;;;;;;4956593;29;20192;-72
2021/07/31 15:14:19;;;;;;;5.43;1.27;;;;;;;;;;4939307;29;20422;-72
2021/07/31 15:16:44;;;;;;;3.73;1.10;;;25.00;70.70;;;;;;4956569;29;20642;-72
2021/07/31 15:19:10;;;;;;;3.10;1.40;;;25.00;72.10;;;;;;4956605;29;20182;-74
2021/07/31 15:21:36;;;;;;;6.20;1.40;;;24.50;70.80;;;;;;4956033;29;20190;-72
2021/07/31 15:24:02;;;;;;;1.87;1.40;;;24.60;71.00;;;;;;4955303;28;20709;-73
2021/07/31 15:26:28;;;;;;;3.20;1.57;;;24.50;71.90;;;;;;4920670;29;20427;-72
2021/07/31 15:28:53;;;;;;;1.93;1.40;;;24.50;70.80;;;;;;4937367;29;20168;-72
2021/07/31 15:31:18;;;;;;;12.03;1.63;;;24.30;72.20;;;;;;4936973;29;20191;-74
2021/07/31 15:33:44;;;;;;;3.27;1.23;;;;;;;;;;4936353;29;20215;-72
2021/07/31 15:36:10;;;;;;;3.23;1.30;;;24.30;71.60;;;;;;4937622;29;20179;-72
2021/07/31 15:38:35;;;;;;;3.33;1.57;;;24.10;70.80;;;;;;4937045;29;20183;-72
2021/07/31 15:41:01;;;;;;;5.30;1.63;;;23.90;71.50;;;;;;4919873;29;20212;-72
2021/07/31 15:43:27;;;;;;;3.10;1.33;;;23.40;72.40;;;;;;4936462;29;20199;-75
2021/07/31 15:45:57;;;;;;;3.87;1.93;;;23.70;71.10;;;;;;4936893;29;20175;-72
2021/07/31 15:48:24;;;;;;;1.67;1.27;;;23.90;72.20;;;;;;4936877;29;20172;-72
2021/07/31 15:50:50;;;;;;;4.23;1.40;;;24.20;74.80;;;;;;4936775;29;20430;-72
2021/07/31 15:53:15;;;;;;;8.57;1.67;;;23.90;73.40;;;;;;4936323;29;20419;-72
2021/07/31 15:55:41;;;;;;;6.60;1.53;;;;;;;;;;4936789;29;20306;-72
2021/07/31 15:58:07;;;;;;;3.00;1.70;;;23.30;73.00;;;;;;4936800;29;20180;-72
2021/07/31 16:00:32;;;;;;;2.10;1.27;;;23.10;73.80;;;;;;4936580;29;20203;-72
2021/07/31 16:02:58;;;;;;;5.43;1.30;;;22.80;72.30;;;;;;4936074;29;20176;-72
2021/07/31 16:05:24;;;;;;;4.47;1.47;;;22.50;75.30;;;;;;4936606;29;20202;-72
2021/07/31 16:07:50;;;;;;;4.73;1.53;;;22.40;74.20;;;;;;4936170;29;20603;-74
2021/07/31 16:10:16;;;;;;;5.10;1.30;;;22.30;74.70;;;;;;4936333;29;20414;-75
2021/07/31 16:12:42;;;;;;;2.93;1.50;;;;;;;;;;4935775;29;20183;-74
2021/07/31 16:15:08;;;;;;;36.30;25.73;;;22.10;76.10;;;;;;4936117;29;20180;-75
2021/07/31 16:17:35;;;;;;;3.40;2.00;;;22.20;76.50;;;;;;4936246;29;20636;-74
2021/07/31 16:20:00;;;;;;;6.00;4.93;;;22.30;76.00;;;;;;4936284;29;20195;-74
2021/07/31 16:22:26;;;;;;;5.30;1.20;;;22.80;75.00;;;;;;4935551;29;20474;-74
2021/07/31 16:24:51;;;;;;;2.23;1.40;;;23.20;73.10;;;;;;4942047;29;20201;-74
2021/07/31 16:27:17;;;;;;;2.17;1.33;;;23.30;76.20;;;;;;4955875;29;20191;-72
2021/07/31 16:29:43;;;;;;;2.97;1.40;;;23.30;74.50;;;;;;4956317;29;20179;-72
2021/07/31 16:32:09;;;;;;;6.17;2.03;;;23.60;75.20;;;;;;4954464;29;20753;-73
2021/07/31 16:34:36;;;;;;;6.00;4.07;;;23.40;75.40;;;;;;4955693;28;20418;-73
2021/07/31 16:37:02;;;;;;;5.67;1.50;;;23.20;75.90;;;;;;4956123;29;20171;-72
2021/07/31 16:39:27;;;;;;;2.17;1.23;;;23.00;74.00;;;;;;4955058;29;20430;-73
2021/07/31 16:41:53;;;;;;;3.20;1.50;;;22.60;74.00;;;;;;4953166;29;20205;-72
2021/07/31 16:44:18;;;;;;;4.53;1.23;;;22.50;75.90;;;;;;4954629;29;20202;-72
2021/07/31 16:46:44;;;;;;;5.70;3.20;;;;;;;;;;4954898;29;20179;-72
2021/07/31 16:49:10;;;;;;;2.07;1.50;;;22.50;75.50;;;;;;4954904;29;20171;-72
2021/07/31 16:51:37;;;;;;;3.33;1.20;;;22.50;76.60;;;;;;4954149;29;20206;-72
2021/07/31 16:54:03;;;;;;;3.03;1.53;;;;;;;;;;4954942;29;20211;-72
2021/07/31 16:56:29;;;;;;;2.83;1.40;;;22.60;76.60;;;;;;4954746;29;20450;-72
2021/07/31 16:58:54;;;;;;;3.50;1.30;;;22.60;77.40;;;;;;4954689;29;20183;-72
2021/07/31 17:01:19;;;;;;;3.33;1.60;;;22.20;77.00;;;;;;4954449;29;20274;-72
2021/07/31 17:03:45;;;;;;;4.43;1.37;;;;;;;;;;4953886;29;20762;-72